Date,TemperatureHighF,TemperatureAvgF,TemperatureLowF,DewpointHighF,DewpointAvgF,DewpointLowF,HumidityHigh,HumidityAvg,HumidityLow,PressureMaxIn,PressureMinIn,WindSpeedMaxMPH,WindSpeedAvgMPH,GustSpeedMaxMPH,PrecipitationSumIn
2013-8-1,88.5,70.4,58.9,0.0,0.0,0.0,0,0,100,0.00,0.00,25,4,32,0.00
2013-8-2,88.1,73.7,63.0,0.0,0.0,0.0,0,0,100,0.00,0.00,17,5,18,0.00
2013-8-3,92.1,75.9,58.1,0.0,0.0,0.0,0,0,100,0.00,0.00,14,4,20,0.00
2013-8-4,88.1,75.3,59.6,0.0,0.0,0.0,0,0,100,0.00,0.00,16,4,21,0.00
2013-8-5,88.9,75.0,65.6,0.0,0.0,0.0,0,0,100,0.00,0.00,19,4,19,0.00
2013-8-6,87.8,73.8,58.9,0.0,0.0,0.0,0,0,100,0.00,0.00,20,2,20,0.00
2013-8-7,85.9,71.2,55.9,0.0,0.0,0.0,0,0,100,0.00,0.00,13,0,13,0.00
2013-8-8,80.9,67.5,59.2,0.0,0.0,0.0,0,0,100,0.00,0.00,16,1,17,0.00
2013-8-9,80.4,64.9,56.2,0.0,0.0,0.0,0,0,100,0.00,0.00,20,1,21,0.00
2013-8-10,77.4,63.2,56.2,0.0,0.0,0.0,0,0,100,0.00,0.00,18,1,18,0.00
2013-8-11,83.1,73.2,63.8,0.0,0.0,0.0,0,0,100,0.00,0.00,14,1,15,0.00
2013-8-12,84.1,66.5,56.2,0.0,0.0,0.0,0,0,100,0.00,0.00,20,1,22,0.00
2013-8-13,77.4,62.6,52.5,0.0,0.0,0.0,0,0,100,0.00,0.00,18,1,22,0.00
2013-8-14,83.5,65.7,48.8,0.0,0.0,0.0,0,0,100,0.00,0.00,16,1,16,0.00
2013-8-15,87.8,69.8,50.7,0.0,0.0,0.0,0,0,100,0.00,0.00,15,1,17,0.00
2013-8-16,92.4,72.4,55.1,0.0,0.0,0.0,0,0,100,0.00,0.00,14,0,14,0.00
2013-8-17,92.9,72.9,53.3,0.0,0.0,0.0,0,0,100,0.00,0.00,18,1,18,0.00
2013-8-18,93.7,75.6,63.8,0.0,0.0,0.0,0,0,100,0.00,0.00,20,4,20,0.00
2013-8-19,92.9,76.1,59.2,0.0,0.0,0.0,0,0,100,0.00,0.00,20,2,20,0.00
2013-8-20,85.5,72.6,61.3,0.0,0.0,0.0,0,0,100,0.00,0.00,21,4,21,0.00
2013-8-21,85.5,69.3,59.6,0.0,0.0,0.0,0,0,100,0.00,0.00,18,2,18,0.00
2013-8-22,84.8,71.9,57.3,0.0,0.0,0.0,0,0,100,0.00,0.00,16,1,16,0.00
2013-8-23,87.1,68.0,59.6,0.0,0.0,0.0,0,0,100,0.00,0.00,31,3,32,0.00
2013-8-24,81.4,66.1,53.8,0.0,0.0,0.0,0,0,100,0.00,0.00,23,3,23,0.00
2013-8-25,75.5,66.4,61.3,0.0,0.0,0.0,0,0,100,0.00,0.00,18,3,18,0.00
2013-8-26,80.4,66.9,59.6,0.0,0.0,0.0,0,0,100,0.00,0.00,22,5,22,0.00
2013-8-27,87.1,71.4,60.5,0.0,0.0,0.0,0,0,100,0.00,0.00,22,3,22,0.00
2013-8-28,90.1,73.7,58.1,0.0,0.0,0.0,0,0,100,0.00,0.00,16,2,17,0.00
2013-8-29,92.4,74.3,57.3,0.0,0.0,0.0,0,0,100,0.00,0.00,16,1,16,0.00
2013-8-30,90.3,74.9,58.9,0.0,0.0,0.0,0,0,100,0.00,0.00,14,2,14,0.00
2013-8-31,90.3,74.5,60.5,0.0,0.0,0.0,0,0,100,0.00,0.00,14,2,16,0.00